sensor_id;sensor_type;location;lat;lon;timestamp;temperature;humidity
935;DHT22;454;53.254;10.400;2024-03-06T05:02:38;0.80;99.90
935;DHT22;454;53.254;10.400;2024-03-06T05:05:05;0.80;99.90
935;DHT22;454;53.254;10.400;2024-03-06T05:07:32;0.80;99.90
935;DHT22;454;53.254;10.400;2024-03-06T05:09:59;0.80;99.90
935;DHT22;454;53.254;10.400;2024-03-06T05:12:26;0.80;99.90
935;DHT22;454;53.254;10.400;2024-03-06T05:14:55;0.80;99.90
935;DHT22;454;53.254;10.400;2024-03-06T05:17:21;0.80;99.90
935;DHT22;454;53.254;10.400;2024-03-06T05:19:50;0.80;99.90
935;DHT22;454;53.254;10.400;2024-03-06T05:22:17;0.80;99.90
935;DHT22;454;53.254;10.400;2024-03-06T05:24:44;0.80;99.90
935;DHT22;454;53.254;10.400;2024-03-06T05:27:11;0.70;99.90
935;DHT22;454;53.254;10.400;2024-03-06T05:29:39;0.70;99.90
935;DHT22;454;53.254;10.400;2024-03-06T05:32:06;0.70;99.90
935;DHT22;454;53.254;10.400;2024-03-06T05:34:33;0.70;99.90
935;DHT22;454;53.254;10.400;2024-03-06T05:37:01;0.70;99.90
935;DHT22;454;53.254;10.400;2024-03-06T05:39:30;0.70;99.90
935;DHT22;454;53.254;10.400;2024-03-06T05:42:00;0.60;99.90
935;DHT22;454;53.254;10.400;2024-03-06T05:44:28;0.70;99.90
935;DHT22;454;53.254;10.400;2024-03-06T05:46:55;0.70;99.90
935;DHT22;454;53.254;10.400;2024-03-06T05:49:22;0.70;99.90
935;DHT22;454;53.254;10.400;2024-03-06T05:51:48;0.60;99.90
935;DHT22;454;53.254;10.400;2024-03-06T05:54:16;0.60;99.90
935;DHT22;454;53.254;10.400;2024-03-06T05:56:44;0.60;99.90
935;DHT22;454;53.254;10.400;2024-03-06T05:59:11;0.60;99.90
935;DHT22;454;53.254;10.400;2024-03-06T06:01:38;0.60;99.90
935;DHT22;454;53.254;10.400;2024-03-06T06:04:05;0.60;99.90
935;DHT22;454;53.254;10.400;2024-03-06T06:06:32;0.60;99.90
935;DHT22;454;53.254;10.400;2024-03-06T06:08:58;0.60;99.90
935;DHT22;454;53.254;10.400;2024-03-06T06:11:27;0.70;99.90
935;DHT22;454;53.254;10.400;2024-03-06T06:13:53;0.70;99.90
935;DHT22;454;53.254;10.400;2024-03-06T06:16:20;0.70;99.90
935;DHT22;454;53.254;10.400;2024-03-06T06:18:47;0.70;99.90
935;DHT22;454;53.254;10.400;2024-03-06T06:21:14;0.80;99.90
935;DHT22;454;53.254;10.400;2024-03-06T06:23:41;0.80;99.90
935;DHT22;454;53.254;10.400;2024-03-06T06:26:08;0.90;99.90
935;DHT22;454;53.254;10.400;2024-03-06T06:28:37;1.00;99.90
935;DHT22;454;53.254;10.400;2024-03-06T06:31:04;1.00;99.90
935;DHT22;454;53.254;10.400;2024-03-06T06:33:30;1.00;99.90
935;DHT22;454;53.254;10.400;2024-03-06T06:35:57;1.00;99.90
935;DHT22;454;53.254;10.400;2024-03-06T06:38:24;1.10;99.90
935;DHT22;454;53.254;10.400;2024-03-06T06:40:50;1.20;99.90
935;DHT22;454;53.254;10.400;2024-03-06T06:43:18;1.20;99.90
935;DHT22;454;53.254;10.400;2024-03-06T06:45:46;1.30;99.90
935;DHT22;454;53.254;10.400;2024-03-06T06:48:12;1.40;99.90
935;DHT22;454;53.254;10.400;2024-03-06T06:50:40;1.40;99.90
935;DHT22;454;53.254;10.400;2024-03-06T06:53:06;1.50;99.90
935;DHT22;454;53.254;10.400;2024-03-06T06:55:33;1.60;99.90
935;DHT22;454;53.254;10.400;2024-03-06T06:58:01;1.70;99.90
935;DHT22;454;53.254;10.400;2024-03-06T07:00:28;1.70;99.90
935;DHT22;454;53.254;10.400;2024-03-06T07:02:57;1.80;99.90
935;DHT22;454;53.254;10.400;2024-03-06T07:05:24;1.80;99.90
935;DHT22;454;53.254;10.400;2024-03-06T07:07:52;1.90;99.90
935;DHT22;454;53.254;10.400;2024-03-06T07:10:19;2.00;99.90
935;DHT22;454;53.254;10.400;2024-03-06T07:12:46;2.00;99.90
935;DHT22;454;53.254;10.400;2024-03-06T07:15:12;2.10;99.90
935;DHT22;454;53.254;10.400;2024-03-06T07:17:39;2.20;99.90
935;DHT22;454;53.254;10.400;2024-03-06T07:20:08;2.20;99.90
935;DHT22;454;53.254;10.400;2024-03-06T07:22:35;2.30;99.90
935;DHT22;454;53.254;10.400;2024-03-06T07:25:02;2.40;99.90
935;DHT22;454;53.254;10.400;2024-03-06T07:27:31;2.50;99.90
935;DHT22;454;53.254;10.400;2024-03-06T07:29:58;2.60;99.90
935;DHT22;454;53.254;10.400;2024-03-06T07:32:24;2.60;99.90
935;DHT22;454;53.254;10.400;2024-03-06T07:34:51;2.70;99.90
935;DHT22;454;53.254;10.400;2024-03-06T07:37:19;2.80;99.90
935;DHT22;454;53.254;10.400;2024-03-06T07:39:46;2.80;99.90
935;DHT22;454;53.254;10.400;2024-03-06T07:42:13;2.90;99.90
935;DHT22;454;53.254;10.400;2024-03-06T07:44:41;2.90;99.90
935;DHT22;454;53.254;10.400;2024-03-06T07:47:07;3.00;99.90
935;DHT22;454;53.254;10.400;2024-03-06T07:49:34;3.10;99.90
935;DHT22;454;53.254;10.400;2024-03-06T07:52:01;3.20;99.90
935;DHT22;454;53.254;10.400;2024-03-06T07:54:29;3.20;99.90
935;DHT22;454;53.254;10.400;2024-03-06T07:56:56;3.20;99.90
935;DHT22;454;53.254;10.400;2024-03-06T07:59:22;3.40;99.90
935;DHT22;454;53.254;10.400;2024-03-06T08:01:49;3.50;99.90
935;DHT22;454;53.254;10.400;2024-03-06T08:04:16;3.60;99.90
935;DHT22;454;53.254;10.400;2024-03-06T08:06:42;3.60;99.90
935;DHT22;454;53.254;10.400;2024-03-06T08:09:09;3.70;99.90
935;DHT22;454;53.254;10.400;2024-03-06T08:11:37;3.70;99.90
935;DHT22;454;53.254;10.400;2024-03-06T08:14:06;3.80;99.90
935;DHT22;454;53.254;10.400;2024-03-06T08:16:33;3.90;99.90
935;DHT22;454;53.254;10.400;2024-03-06T08:19:00;4.00;99.90
935;DHT22;454;53.254;10.400;2024-03-06T08:21:26;4.10;99.90
935;DHT22;454;53.254;10.400;2024-03-06T08:23:53;4.10;99.90
935;DHT22;454;53.254;10.400;2024-03-06T08:26:22;4.20;99.90
935;DHT22;454;53.254;10.400;2024-03-06T08:28:50;4.30;99.90
935;DHT22;454;53.254;10.400;2024-03-06T08:31:18;4.30;99.90
935;DHT22;454;53.254;10.400;2024-03-06T08:33:47;4.30;99.90
935;DHT22;454;53.254;10.400;2024-03-06T08:36:13;4.40;99.90
935;DHT22;454;53.254;10.400;2024-03-06T08:38:40;4.40;99.90
935;DHT22;454;53.254;10.400;2024-03-06T08:41:07;4.40;99.90
935;DHT22;454;53.254;10.400;2024-03-06T08:43:33;4.40;99.90
935;DHT22;454;53.254;10.400;2024-03-06T08:46:01;4.50;99.90
935;DHT22;454;53.254;10.400;2024-03-06T08:48:28;4.50;99.90
935;DHT22;454;53.254;10.400;2024-03-06T08:50:55;4.60;99.90
935;DHT22;454;53.254;10.400;2024-03-06T08:53:22;4.70;99.90
935;DHT22;454;53.254;10.400;2024-03-06T08:55:49;4.80;99.90
935;DHT22;454;53.254;10.400;2024-03-06T08:58:15;4.80;99.90
935;DHT22;454;53.254;10.400;2024-03-06T09:00:42;4.80;99.90
935;DHT22;454;53.254;10.400;2024-03-06T09:03:10;4.80;99.90
935;DHT22;454;53.254;10.400;2024-03-06T09:05:37;4.90;99.90
935;DHT22;454;53.254;10.400;2024-03-06T09:08:04;5.00;99.90
935;DHT22;454;53.254;10.400;2024-03-06T09:10:31;5.00;99.90
935;DHT22;454;53.254;10.400;2024-03-06T09:12:58;5.00;99.90
935;DHT22;454;53.254;10.400;2024-03-06T09:15:25;5.10;99.90
935;DHT22;454;53.254;10.400;2024-03-06T09:17:52;5.10;99.90
935;DHT22;454;53.254;10.400;2024-03-06T09:20:20;5.10;99.90
935;DHT22;454;53.254;10.400;2024-03-06T09:22:49;5.20;99.90
935;DHT22;454;53.254;10.400;2024-03-06T09:25:19;5.20;99.90
935;DHT22;454;53.254;10.400;2024-03-06T09:27:46;5.30;99.90
935;DHT22;454;53.254;10.400;2024-03-06T09:30:13;5.30;99.90
935;DHT22;454;53.254;10.400;2024-03-06T09:32:41;5.30;99.90
935;DHT22;454;53.254;10.400;2024-03-06T09:35:09;5.30;99.90
935;DHT22;454;53.254;10.400;2024-03-06T09:37:37;5.30;99.90
935;DHT22;454;53.254;10.400;2024-03-06T09:40:05;5.30;99.90
935;DHT22;454;53.254;10.400;2024-03-06T09:42:33;5.40;99.90
935;DHT22;454;53.254;10.400;2024-03-06T09:45:00;5.40;99.90
935;DHT22;454;53.254;10.400;2024-03-06T09:47:31;5.50;99.90
935;DHT22;454;53.254;10.400;2024-03-06T09:49:59;5.50;99.90
935;DHT22;454;53.254;10.400;2024-03-06T09:52:29;5.60;99.90
935;DHT22;454;53.254;10.400;2024-03-06T09:54:57;5.60;99.90
935;DHT22;454;53.254;10.400;2024-03-06T09:57:24;5.60;99.90
935;DHT22;454;53.254;10.400;2024-03-06T09:59:51;5.60;99.90
935;DHT22;454;53.254;10.400;2024-03-06T10:02:28;5.70;99.90
935;DHT22;454;53.254;10.400;2024-03-06T10:04:56;5.80;99.90
935;DHT22;454;53.254;10.400;2024-03-06T10:07:23;5.80;99.90
935;DHT22;454;53.254;10.400;2024-03-06T10:09:52;5.90;99.90
935;DHT22;454;53.254;10.400;2024-03-06T10:12:21;5.90;99.90
935;DHT22;454;53.254;10.400;2024-03-06T10:14:50;6.00;99.90
935;DHT22;454;53.254;10.400;2024-03-06T10:18:26;6.10;99.90
935;DHT22;454;53.254;10.400;2024-03-06T10:20:53;6.10;99.90
935;DHT22;454;53.254;10.400;2024-03-06T10:23:20;6.20;99.90
935;DHT22;454;53.254;10.400;2024-03-06T10:25:48;6.30;99.90
935;DHT22;454;53.254;10.400;2024-03-06T10:28:18;6.30;99.90
935;DHT22;454;53.254;10.400;2024-03-06T10:30:45;6.50;99.90
935;DHT22;454;53.254;10.400;2024-03-06T10:33:12;6.50;99.90
935;DHT22;454;53.254;10.400;2024-03-06T10:35:42;6.60;99.90
935;DHT22;454;53.254;10.400;2024-03-06T10:38:10;6.60;99.90
935;DHT22;454;53.254;10.400;2024-03-06T10:40:38;6.70;99.90
935;DHT22;454;53.254;10.400;2024-03-06T10:43:07;6.80;99.90
935;DHT22;454;53.254;10.400;2024-03-06T10:45:44;6.80;99.90
935;DHT22;454;53.254;10.400;2024-03-06T10:48:13;6.90;99.90
935;DHT22;454;53.254;10.400;2024-03-06T10:50:42;7.10;99.90
935;DHT22;454;53.254;10.400;2024-03-06T10:54:06;7.30;99.90
935;DHT22;454;53.254;10.400;2024-03-06T10:56:34;7.30;99.90
935;DHT22;454;53.254;10.400;2024-03-06T10:59:01;7.30;99.90
935;DHT22;454;53.254;10.400;2024-03-06T11:01:30;7.30;99.90
935;DHT22;454;53.254;10.400;2024-03-06T11:03:59;7.30;99.90
935;DHT22;454;53.254;10.400;2024-03-06T11:06:27;7.40;99.90
935;DHT22;454;53.254;10.400;2024-03-06T11:08:53;7.50;99.90
935;DHT22;454;53.254;10.400;2024-03-06T11:11:22;7.50;99.90
935;DHT22;454;53.254;10.400;2024-03-06T11:13:50;7.50;99.90
935;DHT22;454;53.254;10.400;2024-03-06T11:16:17;7.60;99.90
935;DHT22;454;53.254;10.400;2024-03-06T11:18:44;7.70;99.90
935;DHT22;454;53.254;10.400;2024-03-06T11:21:28;7.70;99.90
935;DHT22;454;53.254;10.400;2024-03-06T11:24:14;7.80;99.90
935;DHT22;454;53.254;10.400;2024-03-06T11:26:48;7.80;99.90
935;DHT22;454;53.254;10.400;2024-03-06T11:29:19;7.80;99.90
935;DHT22;454;53.254;10.400;2024-03-06T11:32:06;7.80;99.90
935;DHT22;454;53.254;10.400;2024-03-06T11:34:34;7.80;99.90
935;DHT22;454;53.254;10.400;2024-03-06T11:37:04;7.80;99.90
935;DHT22;454;53.254;10.400;2024-03-06T11:39:33;7.80;99.90
935;DHT22;454;53.254;10.400;2024-03-06T11:42:03;7.80;99.90
935;DHT22;454;53.254;10.400;2024-03-06T11:44:34;7.70;99.90
935;DHT22;454;53.254;10.400;2024-03-06T11:47:02;7.80;99.90
935;DHT22;454;53.254;10.400;2024-03-06T11:49:30;7.90;99.90
935;DHT22;454;53.254;10.400;2024-03-06T11:52:00;7.90;99.90
935;DHT22;454;53.254;10.400;2024-03-06T11:54:28;7.90;99.90
935;DHT22;454;53.254;10.400;2024-03-06T11:56:56;8.10;99.90
935;DHT22;454;53.254;10.400;2024-03-06T11:59:25;8.40;99.90
935;DHT22;454;53.254;10.400;2024-03-06T12:01:53;8.50;99.90
935;DHT22;454;53.254;10.400;2024-03-06T12:04:20;8.70;99.90
935;DHT22;454;53.254;10.400;2024-03-06T12:06:48;8.70;99.90
935;DHT22;454;53.254;10.400;2024-03-06T12:09:15;8.70;99.90
935;DHT22;454;53.254;10.400;2024-03-06T12:11:42;8.60;99.90
935;DHT22;454;53.254;10.400;2024-03-06T12:14:13;8.50;99.90
935;DHT22;454;53.254;10.400;2024-03-06T12:16:43;8.50;99.90
935;DHT22;454;53.254;10.400;2024-03-06T12:19:10;8.50;99.90
935;DHT22;454;53.254;10.400;2024-03-06T12:21:39;8.50;99.90
935;DHT22;454;53.254;10.400;2024-03-06T12:24:07;8.50;99.90
935;DHT22;454;53.254;10.400;2024-03-06T12:26:34;8.60;99.90
935;DHT22;454;53.254;10.400;2024-03-06T12:29:05;8.60;99.90
935;DHT22;454;53.254;10.400;2024-03-06T12:31:33;8.70;99.90
935;DHT22;454;53.254;10.400;2024-03-06T12:34:02;8.90;99.90
935;DHT22;454;53.254;10.400;2024-03-06T12:36:29;8.90;99.90
935;DHT22;454;53.254;10.400;2024-03-06T12:38:58;8.80;99.90
935;DHT22;454;53.254;10.400;2024-03-06T12:41:25;8.80;99.90
935;DHT22;454;53.254;10.400;2024-03-06T12:43:53;8.70;99.90
935;DHT22;454;53.254;10.400;2024-03-06T12:46:20;8.70;99.90
935;DHT22;454;53.254;10.400;2024-03-06T12:48:47;8.70;99.90
935;DHT22;454;53.254;10.400;2024-03-06T12:51:15;8.70;99.90
935;DHT22;454;53.254;10.400;2024-03-06T12:53:42;8.60;99.90
935;DHT22;454;53.254;10.400;2024-03-06T12:56:09;8.60;99.90
935;DHT22;454;53.254;10.400;2024-03-06T12:58:36;8.50;99.90
935;DHT22;454;53.254;10.400;2024-03-06T13:01:03;8.40;99.90
935;DHT22;454;53.254;10.400;2024-03-06T13:03:31;8.40;99.90
935;DHT22;454;53.254;10.400;2024-03-06T13:05:57;8.30;99.90
935;DHT22;454;53.254;10.400;2024-03-06T13:08:25;8.10;99.90
935;DHT22;454;53.254;10.400;2024-03-06T13:10:53;8.10;99.90
935;DHT22;454;53.254;10.400;2024-03-06T13:13:20;8.10;99.90
935;DHT22;454;53.254;10.400;2024-03-06T13:15:49;8.10;99.90
935;DHT22;454;53.254;10.400;2024-03-06T13:18:15;8.20;99.90
935;DHT22;454;53.254;10.400;2024-03-06T13:20:43;8.40;99.90
935;DHT22;454;53.254;10.400;2024-03-06T13:23:10;8.40;99.90
935;DHT22;454;53.254;10.400;2024-03-06T13:25:38;8.40;99.90
935;DHT22;454;53.254;10.400;2024-03-06T13:28:05;8.50;99.90
935;DHT22;454;53.254;10.400;2024-03-06T13:30:32;8.50;99.90
935;DHT22;454;53.254;10.400;2024-03-06T13:32:59;8.50;99.90
935;DHT22;454;53.254;10.400;2024-03-06T13:35:26;8.50;99.90
935;DHT22;454;53.254;10.400;2024-03-06T13:37:54;8.60;99.90
935;DHT22;454;53.254;10.400;2024-03-06T13:40:20;8.70;99.90
935;DHT22;454;53.254;10.400;2024-03-06T13:42:48;8.70;99.90
935;DHT22;454;53.254;10.400;2024-03-06T13:45:15;8.70;99.90
935;DHT22;454;53.254;10.400;2024-03-06T13:47:43;8.70;99.90
935;DHT22;454;53.254;10.400;2024-03-06T13:50:11;8.70;99.90
935;DHT22;454;53.254;10.400;2024-03-06T13:52:39;8.90;99.90
935;DHT22;454;53.254;10.400;2024-03-06T13:55:06;8.90;99.90
935;DHT22;454;53.254;10.400;2024-03-06T13:57:34;8.90;99.90
935;DHT22;454;53.254;10.400;2024-03-06T14:00:02;8.90;99.90
935;DHT22;454;53.254;10.400;2024-03-06T14:02:30;8.90;99.90
935;DHT22;454;53.254;10.400;2024-03-06T14:04:57;8.80;99.90
935;DHT22;454;53.254;10.400;2024-03-06T14:07:24;8.70;99.90
935;DHT22;454;53.254;10.400;2024-03-06T14:09:50;8.60;99.90
935;DHT22;454;53.254;10.400;2024-03-06T14:12:17;8.60;99.90
935;DHT22;454;53.254;10.400;2024-03-06T14:14:44;8.60;99.90
935;DHT22;454;53.254;10.400;2024-03-06T14:17:12;8.50;99.90
935;DHT22;454;53.254;10.400;2024-03-06T14:19:39;8.50;99.90
935;DHT22;454;53.254;10.400;2024-03-06T14:22:07;8.40;99.90
935;DHT22;454;53.254;10.400;2024-03-06T14:24:33;8.30;99.90
935;DHT22;454;53.254;10.400;2024-03-06T14:27:01;8.30;99.90
935;DHT22;454;53.254;10.400;2024-03-06T14:29:28;8.30;99.90
935;DHT22;454;53.254;10.400;2024-03-06T14:31:55;8.30;99.90
935;DHT22;454;53.254;10.400;2024-03-06T14:34:23;8.40;99.90
935;DHT22;454;53.254;10.400;2024-03-06T14:36:50;8.40;99.90
935;DHT22;454;53.254;10.400;2024-03-06T14:39:17;8.40;99.90
935;DHT22;454;53.254;10.400;2024-03-06T14:41:43;8.40;99.90
935;DHT22;454;53.254;10.400;2024-03-06T14:44:12;8.40;99.90
935;DHT22;454;53.254;10.400;2024-03-06T14:46:40;8.50;99.90
935;DHT22;454;53.254;10.400;2024-03-06T14:49:07;8.60;99.90
935;DHT22;454;53.254;10.400;2024-03-06T14:51:35;8.60;99.90
935;DHT22;454;53.254;10.400;2024-03-06T14:54:02;8.50;99.90
935;DHT22;454;53.254;10.400;2024-03-06T14:56:29;8.50;99.90
935;DHT22;454;53.254;10.400;2024-03-06T14:58:56;8.40;99.90
935;DHT22;454;53.254;10.400;2024-03-06T15:01:23;8.40;99.90
935;DHT22;454;53.254;10.400;2024-03-06T15:03:50;8.30;99.90
935;DHT22;454;53.254;10.400;2024-03-06T15:06:17;8.20;99.90
935;DHT22;454;53.254;10.400;2024-03-06T15:08:45;8.20;99.90
935;DHT22;454;53.254;10.400;2024-03-06T15:11:12;8.20;99.90
935;DHT22;454;53.254;10.400;2024-03-06T15:13:39;8.20;99.90
935;DHT22;454;53.254;10.400;2024-03-06T15:16:06;8.20;99.90
935;DHT22;454;53.254;10.400;2024-03-06T15:18:34;8.20;99.90
935;DHT22;454;53.254;10.400;2024-03-06T15:21:00;8.20;99.90
935;DHT22;454;53.254;10.400;2024-03-06T15:23:27;8.20;99.90
935;DHT22;454;53.254;10.400;2024-03-06T15:25:55;8.20;99.90
935;DHT22;454;53.254;10.400;2024-03-06T15:28:22;8.30;99.90
935;DHT22;454;53.254;10.400;2024-03-06T15:30:48;8.30;99.90
935;DHT22;454;53.254;10.400;2024-03-06T15:33:16;8.30;99.90
935;DHT22;454;53.254;10.400;2024-03-06T15:35:43;8.20;99.90
935;DHT22;454;53.254;10.400;2024-03-06T15:38:10;8.20;99.90
935;DHT22;454;53.254;10.400;2024-03-06T15:40:39;8.10;99.90
935;DHT22;454;53.254;10.400;2024-03-06T15:43:07;8.10;99.90
935;DHT22;454;53.254;10.400;2024-03-06T15:45:34;8.00;99.90
935;DHT22;454;53.254;10.400;2024-03-06T15:48:01;7.90;99.90
935;DHT22;454;53.254;10.400;2024-03-06T15:50:28;7.80;99.90
935;DHT22;454;53.254;10.400;2024-03-06T15:52:55;7.70;99.90
935;DHT22;454;53.254;10.400;2024-03-06T15:55:21;7.70;99.90
935;DHT22;454;53.254;10.400;2024-03-06T15:57:48;7.60;99.90
935;DHT22;454;53.254;10.400;2024-03-06T16:00:16;7.50;99.90
935;DHT22;454;53.254;10.400;2024-03-06T16:02:44;7.50;99.90
935;DHT22;454;53.254;10.400;2024-03-06T16:05:10;7.40;99.90
935;DHT22;454;53.254;10.400;2024-03-06T16:07:38;7.30;99.90
935;DHT22;454;53.254;10.400;2024-03-06T16:10:05;7.30;99.90
935;DHT22;454;53.254;10.400;2024-03-06T16:12:32;7.20;99.90
935;DHT22;454;53.254;10.400;2024-03-06T16:14:59;7.20;99.90
935;DHT22;454;53.254;10.400;2024-03-06T16:17:28;7.20;99.90
935;DHT22;454;53.254;10.400;2024-03-06T16:19:55;7.10;99.90
935;DHT22;454;53.254;10.400;2024-03-06T16:22:21;7.10;99.90
935;DHT22;454;53.254;10.400;2024-03-06T16:24:49;7.10;99.90
935;DHT22;454;53.254;10.400;2024-03-06T16:27:17;7.00;99.90
935;DHT22;454;53.254;10.400;2024-03-06T16:29:44;7.00;99.90
935;DHT22;454;53.254;10.400;2024-03-06T16:32:11;6.90;99.90
935;DHT22;454;53.254;10.400;2024-03-06T16:34:39;6.90;99.90
935;DHT22;454;53.254;10.400;2024-03-06T16:37:06;6.90;99.90
935;DHT22;454;53.254;10.400;2024-03-06T16:39:32;6.90;99.90
935;DHT22;454;53.254;10.400;2024-03-06T16:42:00;6.80;99.90
935;DHT22;454;53.254;10.400;2024-03-06T16:44:26;6.80;99.90
935;DHT22;454;53.254;10.400;2024-03-06T16:46:53;6.70;99.90
935;DHT22;454;53.254;10.400;2024-03-06T16:49:20;6.60;99.90
935;DHT22;454;53.254;10.400;2024-03-06T16:51:48;6.60;99.90
935;DHT22;454;53.254;10.400;2024-03-06T16:54:15;6.60;99.90
935;DHT22;454;53.254;10.400;2024-03-06T16:56:43;6.50;99.90
935;DHT22;454;53.254;10.400;2024-03-06T16:59:10;6.40;99.90
935;DHT22;454;53.254;10.400;2024-03-06T17:01:36;6.30;99.90
935;DHT22;454;53.254;10.400;2024-03-06T17:04:04;6.30;99.90
935;DHT22;454;53.254;10.400;2024-03-06T17:06:31;6.30;99.90
935;DHT22;454;53.254;10.400;2024-03-06T17:08:59;6.20;99.90
935;DHT22;454;53.254;10.400;2024-03-06T17:11:25;6.10;99.90
935;DHT22;454;53.254;10.400;2024-03-06T17:13:52;6.10;99.90
935;DHT22;454;53.254;10.400;2024-03-06T17:16:19;6.00;99.90
935;DHT22;454;53.254;10.400;2024-03-06T17:18:45;5.90;99.90
935;DHT22;454;53.254;10.400;2024-03-06T17:21:12;5.90;99.90
935;DHT22;454;53.254;10.400;2024-03-06T17:23:39;5.80;99.90
935;DHT22;454;53.254;10.400;2024-03-06T17:26:07;5.80;99.90
935;DHT22;454;53.254;10.400;2024-03-06T17:28:36;5.80;99.90
935;DHT22;454;53.254;10.400;2024-03-06T17:31:05;5.80;99.90
935;DHT22;454;53.254;10.400;2024-03-06T17:33:32;5.80;99.90
935;DHT22;454;53.254;10.400;2024-03-06T17:35:59;5.70;99.90
935;DHT22;454;53.254;10.400;2024-03-06T17:38:25;5.70;99.90
935;DHT22;454;53.254;10.400;2024-03-06T17:40:53;5.60;99.90
935;DHT22;454;53.254;10.400;2024-03-06T17:43:21;5.60;99.90
935;DHT22;454;53.254;10.400;2024-03-06T17:45:48;5.60;99.90
935;DHT22;454;53.254;10.400;2024-03-06T17:48:15;5.50;99.90
935;DHT22;454;53.254;10.400;2024-03-06T17:50:41;5.40;99.90
935;DHT22;454;53.254;10.400;2024-03-06T17:53:08;5.30;99.90
935;DHT22;454;53.254;10.400;2024-03-06T17:55:36;5.30;99.90
935;DHT22;454;53.254;10.400;2024-03-06T17:58:04;5.30;99.90
935;DHT22;454;53.254;10.400;2024-03-06T18:00:32;5.20;99.90
935;DHT22;454;53.254;10.400;2024-03-06T18:02:59;5.20;99.90
935;DHT22;454;53.254;10.400;2024-03-06T18:05:26;5.10;99.90
935;DHT22;454;53.254;10.400;2024-03-06T18:07:52;5.10;99.90
935;DHT22;454;53.254;10.400;2024-03-06T18:10:20;5.10;99.90
935;DHT22;454;53.254;10.400;2024-03-06T18:12:47;5.00;99.90
935;DHT22;454;53.254;10.400;2024-03-06T18:15:14;5.00;99.90
935;DHT22;454;53.254;10.400;2024-03-06T18:17:42;4.90;99.90
935;DHT22;454;53.254;10.400;2024-03-06T18:20:09;4.80;99.90
935;DHT22;454;53.254;10.400;2024-03-06T18:22:36;4.80;99.90
935;DHT22;454;53.254;10.400;2024-03-06T18:25:04;4.70;99.90
935;DHT22;454;53.254;10.400;2024-03-06T18:27:31;4.70;99.90
935;DHT22;454;53.254;10.400;2024-03-06T18:29:58;4.70;99.90
935;DHT22;454;53.254;10.400;2024-03-06T18:32:25;4.60;99.90
935;DHT22;454;53.254;10.400;2024-03-06T18:34:53;4.60;99.90
935;DHT22;454;53.254;10.400;2024-03-06T18:37:23;4.50;99.90
935;DHT22;454;53.254;10.400;2024-03-06T18:39:50;4.50;99.90
935;DHT22;454;53.254;10.400;2024-03-06T18:42:16;4.40;99.90
935;DHT22;454;53.254;10.400;2024-03-06T18:44:43;4.40;99.90
935;DHT22;454;53.254;10.400;2024-03-06T18:47:10;4.40;99.90
935;DHT22;454;53.254;10.400;2024-03-06T18:49:37;4.40;99.90
935;DHT22;454;53.254;10.400;2024-03-06T18:52:05;4.30;99.90
935;DHT22;454;53.254;10.400;2024-03-06T18:54:32;4.30;99.90
935;DHT22;454;53.254;10.400;2024-03-06T18:56:58;4.30;99.90
935;DHT22;454;53.254;10.400;2024-03-06T18:59:25;4.20;99.90
935;DHT22;454;53.254;10.400;2024-03-06T19:01:52;4.20;99.90
935;DHT22;454;53.254;10.400;2024-03-06T19:04:18;4.20;99.90
935;DHT22;454;53.254;10.400;2024-03-06T19:06:47;4.20;99.90
935;DHT22;454;53.254;10.400;2024-03-06T19:09:16;4.10;99.90
935;DHT22;454;53.254;10.400;2024-03-06T19:11:44;4.10;99.90
935;DHT22;454;53.254;10.400;2024-03-06T19:14:11;4.10;99.90
935;DHT22;454;53.254;10.400;2024-03-06T19:16:38;4.00;99.90
935;DHT22;454;53.254;10.400;2024-03-06T19:19:04;4.00;99.90
935;DHT22;454;53.254;10.400;2024-03-06T19:21:32;4.00;99.90
935;DHT22;454;53.254;10.400;2024-03-06T19:23:58;4.00;99.90
935;DHT22;454;53.254;10.400;2024-03-06T19:26:26;4.00;99.90
935;DHT22;454;53.254;10.400;2024-03-06T19:28:53;4.00;99.90
935;DHT22;454;53.254;10.400;2024-03-06T19:31:20;3.90;99.90
935;DHT22;454;53.254;10.400;2024-03-06T19:33:46;3.90;99.90
935;DHT22;454;53.254;10.400;2024-03-06T19:36:13;3.90;99.90
935;DHT22;454;53.254;10.400;2024-03-06T19:38:40;3.90;99.90
935;DHT22;454;53.254;10.400;2024-03-06T19:41:06;3.80;99.90
935;DHT22;454;53.254;10.400;2024-03-06T19:43:34;3.80;99.90
935;DHT22;454;53.254;10.400;2024-03-06T19:46:04;3.70;99.90
935;DHT22;454;53.254;10.400;2024-03-06T19:48:31;3.70;99.90
935;DHT22;454;53.254;10.400;2024-03-06T19:50:58;3.60;99.90
935;DHT22;454;53.254;10.400;2024-03-06T19:53:25;3.60;99.90
935;DHT22;454;53.254;10.400;2024-03-06T19:55:52;3.60;99.90
935;DHT22;454;53.254;10.400;2024-03-06T19:58:19;3.50;99.90
935;DHT22;454;53.254;10.400;2024-03-06T20:00:47;3.50;99.90
935;DHT22;454;53.254;10.400;2024-03-06T20:03:14;3.50;99.90
935;DHT22;454;53.254;10.400;2024-03-06T20:05:40;3.40;99.90
935;DHT22;454;53.254;10.400;2024-03-06T20:08:08;3.40;99.90
935;DHT22;454;53.254;10.400;2024-03-06T20:10:35;3.40;99.90
935;DHT22;454;53.254;10.400;2024-03-06T20:13:02;3.30;99.90
935;DHT22;454;53.254;10.400;2024-03-06T20:15:31;3.30;99.90
935;DHT22;454;53.254;10.400;2024-03-06T20:17:59;3.30;99.90
935;DHT22;454;53.254;10.400;2024-03-06T20:20:27;3.30;99.90
935;DHT22;454;53.254;10.400;2024-03-06T20:22:53;3.20;99.90
935;DHT22;454;53.254;10.400;2024-03-06T20:25:25;3.20;99.90
935;DHT22;454;53.254;10.400;2024-03-06T20:27:52;3.20;99.90
935;DHT22;454;53.254;10.400;2024-03-06T20:30:18;3.10;99.90
935;DHT22;454;53.254;10.400;2024-03-06T20:32:46;3.10;99.90
935;DHT22;454;53.254;10.400;2024-03-06T20:35:14;3.00;99.90
935;DHT22;454;53.254;10.400;2024-03-06T20:37:45;3.00;99.90
935;DHT22;454;53.254;10.400;2024-03-06T20:40:12;3.00;99.90
935;DHT22;454;53.254;10.400;2024-03-06T20:42:39;3.00;99.90
935;DHT22;454;53.254;10.400;2024-03-06T20:45:07;3.00;99.90
935;DHT22;454;53.254;10.400;2024-03-06T20:47:36;3.00;99.90
935;DHT22;454;53.254;10.400;2024-03-06T20:50:03;2.90;99.90
935;DHT22;454;53.254;10.400;2024-03-06T20:52:31;2.90;99.90
935;DHT22;454;53.254;10.400;2024-03-06T20:54:58;2.90;99.90
935;DHT22;454;53.254;10.400;2024-03-06T20:57:24;2.90;99.90
935;DHT22;454;53.254;10.400;2024-03-06T20:59:51;2.80;99.90
935;DHT22;454;53.254;10.400;2024-03-06T21:02:18;2.80;99.90
935;DHT22;454;53.254;10.400;2024-03-06T21:04:44;2.80;99.90
935;DHT22;454;53.254;10.400;2024-03-06T21:07:11;2.80;99.90
935;DHT22;454;53.254;10.400;2024-03-06T21:09:39;2.80;99.90
935;DHT22;454;53.254;10.400;2024-03-06T21:12:06;2.80;99.90
935;DHT22;454;53.254;10.400;2024-03-06T21:14:33;2.80;99.90
935;DHT22;454;53.254;10.400;2024-03-06T21:17:02;2.80;99.90
935;DHT22;454;53.254;10.400;2024-03-06T21:19:30;2.80;99.90
935;DHT22;454;53.254;10.400;2024-03-06T21:21:57;2.80;99.90
935;DHT22;454;53.254;10.400;2024-03-06T21:24:24;2.80;99.90
935;DHT22;454;53.254;10.400;2024-03-06T21:26:52;2.80;99.90
935;DHT22;454;53.254;10.400;2024-03-06T21:29:19;2.80;99.90
935;DHT22;454;53.254;10.400;2024-03-06T21:31:45;2.80;99.90
935;DHT22;454;53.254;10.400;2024-03-06T21:34:12;2.80;99.90
935;DHT22;454;53.254;10.400;2024-03-06T21:36:39;2.80;99.90
935;DHT22;454;53.254;10.400;2024-03-06T21:39:06;2.80;99.90